Aérodrome :
LOGIN :

S'inscrire | Disclaimer

   EN    FR    IT 

 










Légende :    VFR   VFR Marginal   IFR   IFR Intensif   IFR Très Intensif
Visi : 
Plafond : 
>= 8 km
>= 3000ft
5 à 8 km
1000 à 3000 ft
1500m à 5 km
500 à 1000 ft
800 à 1500m
200 à 500 ft
< 800m
< 200 ft
Symboles :   Orages  Brouillard  Fortes neiges  Fortes précipitations  Vent > 20 kt
SIGMETs :   Divers  Orages  Givrage  Turbulence  Onde Orograph.  Cendres Volcan.






- Altitude de l'aérodrome : 202 ft
- Code IATA : LGW


EGKK - London Gatwick

DERNIER METAR :
  • 200520Z 21014KT 4000 -RA BKN006 10/09 Q0994

METARs EXPIRÉS :
  • 200450Z 21015G27KT 6000 -RA BKN006 10/09 Q0994
  • 200420Z 21015G25KT 4000 -RADZ BKN006 10/09 Q0994
  • 200350Z 22017KT 180V240 4300 -RADZ BKN006 10/09 Q0994
  • 200320Z 21015KT 5000 -RA BKN007 10/09 Q0995
  • 200250Z 21014G29KT 170V240 4000 -RA BKN007 10/09 Q0995

TAF TAF EGKK
Valide du 20 à 06h jusqu'au 21 à 12h UTC


200455Z 2006/2112 21015KT 9999 BKN010
TEMPO 2006/2020 22018G30KT 3500 RADZ BKN007
PROB30
TEMPO 2006/2008 BKN004
BECMG 2014/2017 19022G35KT
TEMPO 2020/2102 6000 RA BKN007
PROB40
TEMPO 2020/2101 4000 +RA
BECMG 2021/2024 27013KT
BECMG 2023/2102 SCT010
PROB30
TEMPO 2109/2112 6000 SHRA



MET'MAP, la Météo Aéronautique d'un coup d'oeil ! - Copyright ORBIFLY Décembre 2007 - Disclaimer

ORBIFLY MET'MAP TEAM :

Programmation & Développement : Alexandra Zaïnal
Sur une idée originale de : Baudouin d'Aumeries
Assistance à la programmation : Marc-Olivier Méhu
Soutien technique & logistique : Manuel Goepfert

Contact : metmap@orbifly.com




SOURCES & CREDITS :

   NOAA